Time;durP1;ratioP1;P1;durP2;ratioP2;P2;SDS_P1;SDS_P2;PMS_P1;PMS_P2;Temp;Humidity;BMP_temperature;BMP_pressure;BME280_temperature;BME280_humidity;BME280_pressure;Samples;Min_cycle;Max_cycle;Signal;HPM_P1;HPM_P2
2023/09/28 00:02:54;;;;;;;2.80;2.60;;;20.00;44.40;;;;;;4973657;28;20778;-50
2023/09/28 00:05:20;;;;;;;2.53;2.23;;;19.90;44.60;;;;;;4973827;28;20412;-52
2023/09/28 00:07:47;;;;;;;6.10;4.07;;;19.80;44.40;;;;;;4973938;28;20845;-52
2023/09/28 00:10:15;;;;;;;5.33;3.00;;;19.80;44.30;;;;;;4973792;28;20419;-49
2023/09/28 00:12:43;;;;;;;3.50;2.53;;;19.80;44.10;;;;;;4973426;28;20461;-52
2023/09/28 00:15:10;;;;;;;5.40;3.50;;;19.80;44.30;;;;;;4973865;28;21094;-51
2023/09/28 00:17:38;;;;;;;3.93;2.97;;;19.80;44.40;;;;;;4973538;28;20464;-48
2023/09/28 00:20:09;;;;;;;3.27;2.53;;;19.70;44.30;;;;;;4973688;28;20513;-52
2023/09/28 00:22:35;;;;;;;2.57;1.80;;;19.70;44.20;;;;;;4973344;28;20897;-51
2023/09/28 00:25:01;;;;;;;4.23;3.10;;;19.80;43.90;;;;;;4973491;28;20418;-50
2023/09/28 00:27:27;;;;;;;3.90;2.60;;;19.80;43.90;;;;;;4973227;28;20942;-51
2023/09/28 00:29:53;;;;;;;2.97;2.10;;;19.70;43.80;;;;;;4973508;28;20642;-52
2023/09/28 00:32:20;;;;;;;6.90;3.03;;;19.60;43.80;;;;;;4973326;28;20412;-51
2023/09/28 00:34:45;;;;;;;3.60;3.30;;;19.60;43.90;;;;;;4973250;28;21021;-51
2023/09/28 00:37:11;;;;;;;2.30;1.97;;;19.50;44.10;;;;;;4973294;28;20530;-51
2023/09/28 00:39:37;;;;;;;3.23;2.60;;;19.40;44.10;;;;;;4973403;28;20171;-50
2023/09/28 00:42:05;;;;;;;3.60;2.17;;;19.40;44.40;;;;;;4973348;28;20199;-49
2023/09/28 00:44:31;;;;;;;3.03;2.60;;;19.40;44.30;;;;;;4973499;28;20184;-51
2023/09/28 00:46:57;;;;;;;2.87;2.37;;;19.30;44.20;;;;;;4973213;28;20243;-48
2023/09/28 00:49:24;;;;;;;3.43;2.30;;;19.40;44.30;;;;;;4973334;28;20411;-49
2023/09/28 00:51:51;;;;;;;2.72;2.15;;;19.30;43.90;;;;;;4972365;28;20179;-52
2023/09/28 00:54:17;;;;;;;3.60;2.30;;;19.30;44.00;;;;;;4972859;28;20216;-50
2023/09/28 00:56:44;;;;;;;6.10;3.33;;;19.30;44.10;;;;;;4973141;28;20167;-49
2023/09/28 00:59:10;;;;;;;2.70;2.00;;;19.20;44.00;;;;;;4973306;28;20196;-52
2023/09/28 01:01:36;;;;;;;4.47;2.97;;;19.20;43.90;;;;;;4973228;28;20662;-51
2023/09/28 01:04:05;;;;;;;4.03;2.90;;;19.20;44.00;;;;;;4972854;28;20183;-49
2023/09/28 01:06:35;;;;;;;1.95;1.40;;;19.20;43.90;;;;;;4973148;28;20419;-51
2023/09/28 01:09:02;;;;;;;3.35;2.97;;;19.20;43.70;;;;;;4973027;28;20204;-52
2023/09/28 01:11:28;;;;;;;2.65;2.38;;;19.10;44.00;;;;;;4971992;28;20200;-52
2023/09/28 01:13:54;;;;;;;4.70;2.10;;;19.10;44.00;;;;;;4972698;28;20258;-52
2023/09/28 01:16:20;;;;;;;8.60;3.53;;;19.10;44.20;;;;;;4973138;28;20590;-53
2023/09/28 01:18:46;;;;;;;4.93;2.70;;;19.10;44.10;;;;;;4972872;28;20219;-52
2023/09/28 01:21:12;;;;;;;9.77;2.70;;;19.00;44.10;;;;;;4972932;28;20176;-51
2023/09/28 01:23:39;;;;;;;7.35;3.22;;;19.00;44.50;;;;;;4972671;28;20180;-51
2023/09/28 01:26:06;;;;;;;3.10;2.85;;;19.00;44.10;;;;;;4972939;28;20196;-52
2023/09/28 01:28:32;;;;;;;3.33;2.85;;;19.00;43.90;;;;;;4972689;28;20219;-53
2023/09/28 01:30:58;;;;;;;18.85;2.70;;;19.00;43.80;;;;;;4972947;28;20603;-51
2023/09/28 01:33:24;;;;;;;3.10;2.50;;;18.90;44.10;;;;;;4972712;28;20204;-53
2023/09/28 01:35:49;;;;;;;7.20;2.97;;;18.90;45.00;;;;;;4972813;28;20211;-51
2023/09/28 01:38:43;;;;;;;3.33;2.20;;;18.90;44.10;;;;;;4972551;28;20195;-51
2023/09/28 01:41:08;;;;;;;3.70;2.13;;;18.90;43.80;;;;;;4972687;28;20203;-52
2023/09/28 01:43:35;;;;;;;3.87;2.67;;;18.90;44.10;;;;;;4972820;28;20211;-51
2023/09/28 01:46:01;;;;;;;5.60;3.65;;;18.80;44.20;;;;;;4972672;28;20673;-51
2023/09/28 01:48:27;;;;;;;4.00;3.05;;;18.70;44.20;;;;;;4972685;28;20203;-50
2023/09/28 01:50:53;;;;;;;4.90;3.20;;;18.70;44.40;;;;;;4972536;28;20180;-51
2023/09/28 01:53:18;;;;;;;4.53;3.03;;;18.60;44.20;;;;;;4972433;28;20663;-51
2023/09/28 01:55:44;;;;;;;2.33;1.90;;;18.60;45.10;;;;;;4972602;28;20281;-52
2023/09/28 01:58:11;;;;;;;2.30;1.87;;;18.60;44.40;;;;;;4972599;28;20192;-50
2023/09/28 02:00:37;;;;;;;2.45;2.17;;;18.60;44.30;;;;;;4972643;28;20255;-51
2023/09/28 02:03:04;;;;;;;11.40;2.70;;;18.60;44.30;;;;;;4972524;28;20263;-51
2023/09/28 02:05:32;;;;;;;2.92;2.63;;;18.60;44.40;;;;;;4975980;28;20407;-51
2023/09/28 02:07:59;;;;;;;2.22;1.80;;;18.60;44.30;;;;;;4976158;28;20204;-51
2023/09/28 02:10:25;;;;;;;5.03;2.78;;;18.60;44.30;;;;;;4976058;28;20188;-51
2023/09/28 02:12:51;;;;;;;1.90;1.67;;;18.50;44.30;;;;;;4975665;28;20195;-51
2023/09/28 02:15:17;;;;;;;2.33;2.00;;;18.40;44.20;;;;;;4975986;28;20172;-52
2023/09/28 02:17:44;;;;;;;3.87;2.87;;;18.40;44.50;;;;;;4975659;28;20686;-52
2023/09/28 02:20:14;;;;;;;7.55;3.75;;;18.30;44.80;;;;;;4975986;28;20399;-51
2023/09/28 02:22:44;;;;;;;2.95;2.58;;;18.30;44.60;;;;;;4975759;28;20206;-51
2023/09/28 02:25:15;;;;;;;5.93;3.25;;;18.30;44.60;;;;;;4975820;28;20175;-52
2023/09/28 02:27:42;;;;;;;3.42;2.40;;;18.30;44.40;;;;;;4975605;28;20207;-51
2023/09/28 02:30:13;;;;;;;4.30;2.90;;;18.30;44.30;;;;;;4975589;28;20183;-51
2023/09/28 02:32:39;;;;;;;4.40;2.30;;;18.30;44.10;;;;;;4975260;28;20199;-51
2023/09/28 02:35:07;;;;;;;2.75;2.47;;;18.30;44.30;;;;;;4975642;28;20186;-52
2023/09/28 02:37:36;;;;;;;4.00;2.35;;;18.20;44.40;;;;;;4975526;28;20366;-51
2023/09/28 02:40:05;;;;;;;4.30;2.50;;;18.20;44.40;;;;;;4975425;28;20164;-52
2023/09/28 02:42:32;;;;;;;3.05;2.20;;;18.20;44.20;;;;;;4975305;28;20639;-52
2023/09/28 02:44:58;;;;;;;2.63;1.98;;;18.20;44.10;;;;;;4975242;28;20203;-51
2023/09/28 02:47:24;;;;;;;3.50;1.60;;;18.20;44.20;;;;;;4975202;28;20230;-51
2023/09/28 02:49:51;;;;;;;5.05;3.25;;;18.10;44.30;;;;;;4975418;28;20462;-51
2023/09/28 02:52:17;;;;;;;2.20;2.00;;;18.00;44.60;;;;;;4975106;28;20187;-52
2023/09/28 02:54:43;;;;;;;2.22;1.77;;;18.00;44.80;;;;;;4975134;28;20171;-52
2023/09/28 02:57:10;;;;;;;2.87;2.67;;;17.90;45.00;;;;;;4975067;28;20246;-50
2023/09/28 02:59:36;;;;;;;5.15;1.80;;;17.90;44.90;;;;;;4974962;28;20495;-51
2023/09/28 03:02:03;;;;;;;3.28;2.15;;;17.90;44.90;;;;;;4974853;28;20172;-50
2023/09/28 03:04:33;;;;;;;3.05;2.45;;;17.90;44.60;;;;;;4974888;28;20259;-50
2023/09/28 03:06:59;;;;;;;2.60;1.52;;;17.90;45.20;;;;;;4975113;28;20165;-50
2023/09/28 03:09:26;;;;;;;3.80;2.90;;;17.90;45.00;;;;;;4975273;28;20235;-50
2023/09/28 03:11:51;;;;;;;3.22;2.20;;;17.90;45.00;;;;;;4974814;28;20172;-52
2023/09/28 03:14:19;;;;;;;4.17;1.70;;;17.90;44.70;;;;;;4974330;28;20239;-52
2023/09/28 03:16:44;;;;;;;4.25;2.60;;;17.90;44.70;;;;;;4974174;28;20202;-52
2023/09/28 03:19:10;;;;;;;2.30;2.10;;;18.00;44.10;;;;;;4974818;28;20738;-54
2023/09/28 03:21:37;;;;;;;5.83;2.87;;;17.90;44.30;;;;;;4974839;28;20246;-52
2023/09/28 03:24:03;;;;;;;4.45;3.95;;;17.80;44.40;;;;;;4974615;28;20549;-54
2023/09/28 03:26:30;;;;;;;6.27;2.60;;;17.70;44.60;;;;;;4974551;28;20260;-56
2023/09/28 03:28:56;;;;;;;1.85;1.55;;;17.70;44.60;;;;;;4974598;28;20434;-52
2023/09/28 03:31:27;;;;;;;2.95;1.83;;;17.60;44.50;;;;;;4974731;28;20266;-50
2023/09/28 03:33:53;;;;;;;2.63;2.35;;;17.60;44.90;;;;;;4975003;28;20207;-54
2023/09/28 03:36:19;;;;;;;2.95;2.15;;;17.60;45.00;;;;;;4975116;28;20181;-54
2023/09/28 03:38:45;;;;;;;4.10;2.03;;;17.60;44.90;;;;;;4975002;28;20192;-53
2023/09/28 03:41:10;;;;;;;3.90;2.53;;;17.60;44.70;;;;;;4974025;28;20234;-51
2023/09/28 03:43:36;;;;;;;3.23;2.87;;;17.70;44.70;;;;;;4975213;28;20180;-54
2023/09/28 03:46:02;;;;;;;3.80;2.73;;;17.60;44.70;;;;;;4975667;28;20666;-52
2023/09/28 03:48:28;;;;;;;6.17;2.37;;;17.60;45.30;;;;;;4975392;28;20262;-52
2023/09/28 03:50:53;;;;;;;3.77;2.93;;;17.50;45.40;;;;;;4975376;28;20255;-51
2023/09/28 03:53:19;;;;;;;2.33;2.13;;;17.50;45.60;;;;;;4974348;28;20207;-51
2023/09/28 03:55:49;;;;;;;4.37;1.97;;;17.60;45.40;;;;;;4973872;28;20969;-54
2023/09/28 03:58:15;;;;;;;4.85;2.20;;;17.50;45.50;;;;;;4973876;28;20575;-52
2023/09/28 04:00:42;;;;;;;4.18;2.83;;;17.60;45.50;;;;;;4973838;28;20311;-54
2023/09/28 04:03:08;;;;;;;2.47;2.20;;;17.60;45.60;;;;;;4973869;28;20179;-52
2023/09/28 04:05:34;;;;;;;2.60;1.43;;;17.60;45.50;;;;;;4975050;28;20187;-51
2023/09/28 04:08:00;;;;;;;2.90;1.80;;;17.60;45.40;;;;;;4975242;28;20798;-53
2023/09/28 04:10:26;;;;;;;2.63;2.28;;;17.60;45.60;;;;;;4973975;28;20186;-54
2023/09/28 04:12:53;;;;;;;5.55;2.90;;;17.50;45.70;;;;;;4974329;28;20212;-51
2023/09/28 04:15:19;;;;;;;2.30;1.90;;;17.60;45.70;;;;;;4975086;28;20279;-51
2023/09/28 04:17:44;;;;;;;2.30;1.97;;;17.60;45.60;;;;;;4974095;28;20199;-52
2023/09/28 04:20:10;;;;;;;3.43;1.87;;;17.60;45.40;;;;;;4973695;28;20408;-54
2023/09/28 04:22:36;;;;;;;2.28;1.60;;;17.70;45.10;;;;;;4973394;28;20172;-50
2023/09/28 04:25:03;;;;;;;2.33;1.53;;;17.60;45.00;;;;;;4973874;28;20567;-53
2023/09/28 04:27:29;;;;;;;2.85;2.30;;;17.70;45.00;;;;;;4973047;28;20338;-54
2023/09/28 04:29:55;;;;;;;4.63;2.67;;;17.60;44.90;;;;;;4974158;28;20293;-52
2023/09/28 04:32:21;;;;;;;2.67;1.87;;;17.60;44.90;;;;;;4974105;28;20933;-51
2023/09/28 04:34:47;;;;;;;3.37;2.13;;;17.60;44.80;;;;;;4973493;28;20176;-53
2023/09/28 04:37:12;;;;;;;6.50;3.73;;;17.60;45.00;;;;;;4973640;28;20240;-51
2023/09/28 04:39:38;;;;;;;2.70;2.50;;;17.60;45.00;;;;;;4973439;28;20259;-52
2023/09/28 04:42:04;;;;;;;2.93;2.47;;;17.60;45.00;;;;;;4973339;28;20642;-51
2023/09/28 04:44:30;;;;;;;5.43;2.58;;;17.60;44.80;;;;;;4971992;28;20186;-50
2023/09/28 04:46:56;;;;;;;4.13;2.88;;;17.50;45.00;;;;;;4973391;28;20188;-52
2023/09/28 04:49:22;;;;;;;8.03;3.30;;;17.50;45.00;;;;;;4973303;28;20179;-49
2023/09/28 04:51:48;;;;;;;2.50;1.70;;;17.50;45.10;;;;;;4973816;28;20176;-52
2023/09/28 04:54:14;;;;;;;3.37;2.13;;;17.50;45.00;;;;;;4972854;28;20594;-50
2023/09/28 04:56:41;;;;;;;5.32;2.20;;;17.50;45.00;;;;;;4973213;28;20918;-50
2023/09/28 04:59:08;;;;;;;6.18;3.33;;;17.60;44.70;;;;;;4973074;28;20206;-51
2023/09/28 05:01:34;;;;;;;4.68;3.30;;;17.50;44.70;;;;;;4972897;28;20183;-52
2023/09/28 05:04:00;;;;;;;4.18;3.50;;;17.50;44.80;;;;;;4972962;28;20184;-49
2023/09/28 05:06:27;;;;;;;4.53;2.87;;;17.40;44.60;;;;;;4973359;28;20665;-50
2023/09/28 05:08:53;;;;;;;3.00;2.72;;;17.40;44.80;;;;;;4973066;28;20438;-52
2023/09/28 05:11:19;;;;;;;2.80;2.43;;;17.40;45.10;;;;;;4972929;28;20180;-51
2023/09/28 05:13:44;;;;;;;4.60;2.57;;;17.40;45.20;;;;;;4972662;28;20502;-53
2023/09/28 05:16:10;;;;;;;5.03;4.63;;;17.30;45.40;;;;;;4973078;28;20179;-53
2023/09/28 05:18:37;;;;;;;4.10;2.70;;;17.40;45.30;;;;;;4972936;28;20195;-50
2023/09/28 05:21:03;;;;;;;6.88;3.75;;;17.40;45.30;;;;;;4972697;28;20550;-50
2023/09/28 05:23:29;;;;;;;2.50;2.30;;;17.40;45.10;;;;;;4973119;28;20184;-53
2023/09/28 05:25:55;;;;;;;2.00;1.30;;;17.40;45.10;;;;;;4972766;28;20242;-53
2023/09/28 05:28:21;;;;;;;1.95;1.63;;;17.40;45.20;;;;;;4972922;28;20521;-49
2023/09/28 05:30:47;;;;;;;5.93;3.83;;;17.40;45.30;;;;;;4972896;28;20755;-54
2023/09/28 05:33:13;;;;;;;3.83;3.00;;;17.40;45.40;;;;;;4972898;28;20552;-51
2023/09/28 05:35:39;;;;;;;1.67;1.57;;;17.40;45.50;;;;;;4972705;28;20175;-49
2023/09/28 05:38:05;;;;;;;11.02;2.72;;;17.50;45.60;;;;;;4973127;28;20196;-53
2023/09/28 05:40:30;;;;;;;3.27;1.67;;;17.50;45.70;;;;;;4976433;28;20239;-49
2023/09/28 05:42:56;;;;;;;3.93;2.60;;;17.50;45.70;;;;;;4976341;28;20180;-50
2023/09/28 05:45:22;;;;;;;5.10;1.90;;;17.50;45.80;;;;;;4976422;28;20594;-52
2023/09/28 05:47:48;;;;;;;4.03;2.70;;;17.60;45.90;;;;;;4976318;28;20196;-50
2023/09/28 05:50:14;;;;;;;3.53;1.50;;;17.60;45.90;;;;;;4976286;28;20614;-50
2023/09/28 05:52:40;;;;;;;4.00;3.50;;;17.70;46.10;;;;;;4975963;28;20856;-53
2023/09/28 05:55:06;;;;;;;4.60;3.08;;;17.70;46.00;;;;;;4976419;28;20407;-53
2023/09/28 05:57:32;;;;;;;3.55;2.55;;;17.80;46.30;;;;;;4976198;28;20287;-50
2023/09/28 05:59:58;;;;;;;2.80;2.58;;;17.90;46.10;;;;;;4976176;28;20666;-52
2023/09/28 06:02:24;;;;;;;4.10;3.70;;;18.00;46.10;;;;;;4975856;28;20297;-50
2023/09/28 06:04:50;;;;;;;3.50;2.70;;;18.20;46.20;;;;;;4975923;28;20218;-52
2023/09/28 06:07:16;;;;;;;2.83;2.40;;;18.30;46.30;;;;;;4975952;28;20203;-50
2023/09/28 06:09:42;;;;;;;2.67;2.27;;;18.40;46.30;;;;;;4976076;28;20180;-49
2023/09/28 06:12:08;;;;;;;6.60;3.37;;;18.50;46.20;;;;;;4975746;28;20571;-52
2023/09/28 06:14:34;;;;;;;3.13;2.40;;;18.70;45.90;;;;;;4975760;28;20208;-49
2023/09/28 06:17:00;;;;;;;3.43;2.30;;;18.80;45.70;;;;;;4975799;28;20180;-50
2023/09/28 06:19:27;;;;;;;4.40;2.50;;;19.00;45.60;;;;;;4975855;28;20442;-53
2023/09/28 06:21:54;;;;;;;5.20;3.30;;;19.10;45.60;;;;;;4976456;28;20531;-52
2023/09/28 06:24:20;;;;;;;6.03;4.60;;;19.20;45.40;;;;;;4975538;28;20546;-50
2023/09/28 06:26:46;;;;;;;7.15;3.17;;;19.30;45.50;;;;;;4975460;28;20187;-52
2023/09/28 06:29:12;;;;;;;3.38;2.63;;;19.40;45.40;;;;;;4975551;28;20686;-52
2023/09/28 06:31:39;;;;;;;5.97;3.60;;;19.60;45.40;;;;;;4975619;28;20187;-50
2023/09/28 06:34:06;;;;;;;4.90;3.47;;;19.70;45.50;;;;;;4975227;28;20469;-48
2023/09/28 06:36:32;;;;;;;4.35;3.45;;;19.80;45.80;;;;;;4975723;28;20183;-52
2023/09/28 06:38:59;;;;;;;4.50;2.38;;;19.90;45.40;;;;;;4975595;28;20203;-50
2023/09/28 06:41:25;;;;;;;6.10;3.92;;;20.00;45.40;;;;;;4975564;28;20180;-49
2023/09/28 06:43:51;;;;;;;4.68;3.17;;;20.10;45.00;;;;;;4975293;28;20271;-52
2023/09/28 06:46:17;;;;;;;8.63;3.55;;;20.20;44.80;;;;;;4975312;28;20211;-49
2023/09/28 06:48:45;;;;;;;3.10;2.55;;;20.40;44.80;;;;;;4975138;28;20748;-52
2023/09/28 06:51:11;;;;;;;3.45;2.50;;;20.50;44.70;;;;;;4975158;28;20216;-53
2023/09/28 06:53:38;;;;;;;5.05;4.05;;;20.60;44.50;;;;;;4975174;28;20203;-50
2023/09/28 06:56:05;;;;;;;4.28;2.97;;;20.70;44.50;;;;;;4975220;28;20590;-50
2023/09/28 06:58:31;;;;;;;3.95;2.65;;;20.90;44.70;;;;;;4975058;28;20713;-53
2023/09/28 07:00:58;;;;;;;8.32;3.40;;;21.00;44.60;;;;;;4975025;28;20208;-55
2023/09/28 07:03:24;;;;;;;3.50;2.92;;;21.20;44.50;;;;;;4974809;28;20567;-56
2023/09/28 07:05:50;;;;;;;2.50;2.07;;;21.30;44.70;;;;;;4974978;28;20176;-54
2023/09/28 07:08:15;;;;;;;2.73;2.53;;;21.40;44.50;;;;;;4974889;28;20434;-53
2023/09/28 07:10:42;;;;;;;7.53;2.87;;;21.50;44.30;;;;;;4975037;28;20646;-55
2023/09/28 07:13:07;;;;;;;5.70;2.47;;;21.50;44.00;;;;;;4974667;28;20278;-53
2023/09/28 07:15:34;;;;;;;6.10;3.73;;;21.60;43.90;;;;;;4974757;28;20216;-54
2023/09/28 07:18:00;;;;;;;4.80;3.45;;;21.70;43.90;;;;;;4974640;28;20187;-56
2023/09/28 07:20:26;;;;;;;3.20;2.90;;;21.80;44.00;;;;;;4974695;28;20172;-53
2023/09/28 07:22:53;;;;;;;4.20;2.20;;;21.90;43.70;;;;;;4974613;28;20416;-54
2023/09/28 07:25:19;;;;;;;4.20;2.10;;;22.00;43.20;;;;;;4974655;28;20191;-55
2023/09/28 07:27:49;;;;;;;3.07;2.77;;;22.10;43.20;;;;;;4974633;28;20462;-51
2023/09/28 07:30:15;;;;;;;4.25;3.20;;;22.30;43.30;;;;;;4974599;28;20778;-52
2023/09/28 07:32:41;;;;;;;3.93;2.70;;;22.50;43.50;;;;;;4974307;28;20180;-54
2023/09/28 07:35:09;;;;;;;3.63;2.63;;;22.60;43.00;;;;;;4974508;28;20914;-56
2023/09/28 07:37:35;;;;;;;3.30;1.60;;;22.70;42.50;;;;;;4974441;28;20439;-55
2023/09/28 07:40:04;;;;;;;1.80;1.00;;;22.80;42.60;;;;;;4974379;28;20407;-56
2023/09/28 07:42:30;;;;;;;2.50;1.40;;;23.00;41.80;;;;;;4974136;28;20408;-54
2023/09/28 07:44:56;;;;;;;3.43;2.27;;;23.10;41.10;;;;;;4974046;28;20414;-54
2023/09/28 07:47:22;;;;;;;3.30;2.40;;;23.10;41.70;;;;;;4974160;28;20419;-56
2023/09/28 07:49:48;;;;;;;4.97;1.90;;;23.30;41.80;;;;;;4974356;28;20226;-54
2023/09/28 07:52:14;;;;;;;3.23;2.00;;;23.30;41.80;;;;;;4973931;28;20195;-55
2023/09/28 07:54:40;;;;;;;3.50;2.50;;;23.50;41.60;;;;;;4973929;28;20461;-53
2023/09/28 07:57:07;;;;;;;3.80;2.80;;;23.60;41.10;;;;;;4973869;28;20406;-54
2023/09/28 07:59:36;;;;;;;2.50;2.03;;;23.70;41.00;;;;;;4973855;28;20435;-51
2023/09/28 08:02:04;;;;;;;2.53;2.10;;;23.80;41.00;;;;;;4973291;28;21036;-53
2023/09/28 08:04:30;;;;;;;2.30;1.83;;;23.90;40.50;;;;;;4973927;28;20411;-53
2023/09/28 08:06:57;;;;;;;3.00;2.40;;;24.10;38.60;;;;;;4973923;28;20454;-55
2023/09/28 08:09:23;;;;;;;3.83;2.33;;;24.10;39.70;;;;;;4973841;28;20502;-53
2023/09/28 08:11:52;;;;;;;3.03;2.20;;;24.10;39.50;;;;;;4973682;28;20416;-55
2023/09/28 08:14:18;;;;;;;2.73;2.13;;;24.20;39.70;;;;;;4973418;28;20486;-53
2023/09/28 08:16:45;;;;;;;2.80;2.10;;;24.30;39.20;;;;;;4973686;28;20451;-54
2023/09/28 08:19:11;;;;;;;6.50;2.40;;;24.40;39.50;;;;;;4973568;28;20423;-54
2023/09/28 08:21:38;;;;;;;4.43;2.57;;;24.50;39.20;;;;;;4973580;28;20431;-54
2023/09/28 08:24:05;;;;;;;3.20;2.70;;;24.70;39.00;;;;;;4973450;28;20411;-57
2023/09/28 08:26:31;;;;;;;4.80;1.70;;;24.80;39.00;;;;;;4973345;28;20466;-54
2023/09/28 08:29:00;;;;;;;3.30;2.50;;;24.90;38.80;;;;;;4973373;28;20447;-54
2023/09/28 08:31:27;;;;;;;3.87;2.50;;;24.90;38.70;;;;;;4973388;28;20909;-52
2023/09/28 08:33:53;;;;;;;3.80;2.47;;;25.00;38.60;;;;;;4973202;28;20466;-53
2023/09/28 08:36:21;;;;;;;3.63;2.47;;;24.20;38.60;;;;;;4973472;28;20411;-55
2023/09/28 08:38:47;;;;;;;2.13;1.60;;;25.20;38.00;;;;;;4973364;28;20887;-58
2023/09/28 08:41:18;;;;;;;1.87;1.63;;;25.30;37.20;;;;;;4973203;28;20427;-51
2023/09/28 08:43:49;;;;;;;3.80;2.70;;;25.40;37.50;;;;;;4973198;28;20498;-54
2023/09/28 08:46:15;;;;;;;3.30;2.20;;;25.40;37.70;;;;;;4973294;28;20458;-56
2023/09/28 08:48:46;;;;;;;2.30;1.77;;;25.50;37.80;;;;;;4973182;28;20837;-52
2023/09/28 08:51:13;;;;;;;4.30;2.03;;;25.60;37.70;;;;;;4973227;28;20183;-56
2023/09/28 08:53:40;;;;;;;3.20;1.80;;;25.70;37.50;;;;;;4972837;28;20455;-54
2023/09/28 08:56:06;;;;;;;3.53;2.30;;;27.30;38.40;;;;;;4973436;28;20439;-53
2023/09/28 08:58:36;;;;;;;4.00;2.27;;;25.80;36.40;;;;;;4973011;28;20459;-56
2023/09/28 09:01:04;;;;;;;2.20;1.70;;;25.80;36.50;;;;;;4973111;28;20779;-53
2023/09/28 09:03:32;;;;;;;3.33;2.97;;;25.90;36.90;;;;;;4973017;28;20415;-55
2023/09/28 09:05:59;;;;;;;4.73;1.90;;;26.00;36.60;;;;;;4973084;28;20414;-56
2023/09/28 09:08:27;;;;;;;2.83;1.70;;;26.10;37.00;;;;;;4972905;28;20895;-53
2023/09/28 09:10:54;;;;;;;3.27;2.23;;;26.20;36.80;;;;;;4973185;28;20423;-56
2023/09/28 09:13:21;;;;;;;2.80;1.67;;;26.30;35.30;;;;;;4973378;28;20830;-56
2023/09/28 09:15:46;;;;;;;2.70;1.63;;;26.30;36.40;;;;;;4977064;28;20438;-53
2023/09/28 09:18:24;;;;;;;2.37;1.63;;;26.40;37.10;;;;;;4976923;28;20462;-54
2023/09/28 09:20:56;;;;;;;2.30;1.80;;;26.60;37.00;;;;;;4976825;28;20542;-58
2023/09/28 09:23:22;;;;;;;3.27;2.30;;;26.70;36.80;;;;;;4976808;28;20403;-57
2023/09/28 09:25:48;;;;;;;3.83;1.30;;;26.70;36.90;;;;;;4976643;28;20952;-53
2023/09/28 09:28:34;;;;;;;3.63;1.80;;;26.90;36.00;;;;;;4976646;28;20427;-52
2023/09/28 09:31:01;;;;;;;2.93;2.10;;;27.10;36.30;;;;;;4976672;28;20183;-56
2023/09/28 09:33:28;;;;;;;2.60;2.03;;;27.10;35.70;;;;;;4976449;28;20937;-55
2023/09/28 09:35:54;;;;;;;9.23;2.97;;;27.20;36.20;;;;;;4976567;28;20422;-55
2023/09/28 09:38:38;;;;;;;2.00;1.60;;;27.30;36.70;;;;;;4976498;28;20427;-56
2023/09/28 09:41:08;;;;;;;5.40;1.90;;;27.40;35.60;;;;;;4976541;28;20439;-53
2023/09/28 09:43:35;;;;;;;3.27;2.63;;;27.40;35.90;;;;;;4976179;28;20415;-56
2023/09/28 09:46:06;;;;;;;2.90;1.97;;;27.40;34.90;;;;;;4976407;28;20415;-56
2023/09/28 09:48:42;;;;;;;1.80;1.40;;;27.60;35.50;;;;;;4976510;28;20435;-54
2023/09/28 09:51:17;;;;;;;2.47;2.03;;;27.70;35.50;;;;;;4976418;28;20485;-54
2023/09/28 09:53:46;;;;;;;2.43;2.00;;;27.80;34.50;;;;;;4975971;28;20462;-56
2023/09/28 09:56:17;;;;;;;2.10;1.73;;;27.90;35.00;;;;;;4976159;28;20909;-54
2023/09/28 09:58:49;;;;;;;4.17;2.60;;;28.00;35.30;;;;;;4976132;28;20959;-54
2023/09/28 10:01:16;;;;;;;2.57;2.37;;;28.10;35.30;;;;;;4976173;28;20431;-56
2023/09/28 10:03:48;;;;;;;2.27;1.60;;;28.20;35.20;;;;;;4975948;28;20411;-54
2023/09/28 10:06:19;;;;;;;3.30;2.23;;;28.20;35.00;;;;;;4976036;28;20415;-55
2023/09/28 10:08:46;;;;;;;4.63;2.87;;;28.30;34.60;;;;;;4975829;28;20872;-56
2023/09/28 10:11:13;;;;;;;2.00;1.43;;;28.30;34.00;;;;;;4975906;28;20412;-57
2023/09/28 10:13:40;;;;;;;11.80;2.77;;;28.30;34.70;;;;;;4975884;28;20466;-52
2023/09/28 10:16:08;;;;;;;2.83;2.47;;;28.30;34.70;;;;;;4975981;28;20782;-56
2023/09/28 10:18:36;;;;;;;3.30;2.70;;;28.30;35.00;;;;;;4975856;28;20963;-54
2023/09/28 10:21:03;;;;;;;3.60;2.53;;;28.40;34.60;;;;;;4975757;28;20446;-55
2023/09/28 10:23:29;;;;;;;3.43;2.90;;;28.50;35.20;;;;;;4975815;28;20762;-56
2023/09/28 10:25:59;;;;;;;6.03;2.90;;;28.50;34.70;;;;;;4975349;28;20435;-54
2023/09/28 10:28:25;;;;;;;3.13;2.07;;;28.60;35.00;;;;;;4975825;28;20432;-56
2023/09/28 10:31:13;;;;;;;3.70;2.07;;;28.70;35.10;;;;;;4975682;28;20901;-56
2023/09/28 10:33:59;;;;;;;3.20;2.33;;;28.80;35.00;;;;;;4975274;28;20463;-55
2023/09/28 10:36:26;;;;;;;4.10;2.10;;;28.90;33.90;;;;;;4975688;28;20440;-55
2023/09/28 10:39:14;;;;;;;3.40;2.23;;;28.90;33.70;;;;;;4975585;28;20427;-57
2023/09/28 10:41:50;;;;;;;3.10;2.00;;;29.00;34.00;;;;;;4975465;28;20494;-55
2023/09/28 10:44:20;;;;;;;2.87;1.67;;;29.10;33.30;;;;;;4975229;28;20384;-53
2023/09/28 10:46:48;;;;;;;2.60;1.67;;;29.00;32.20;;;;;;4975333;28;20934;-55
2023/09/28 10:49:21;;;;;;;5.40;1.63;;;29.10;33.00;;;;;;4975341;28;20458;-51
2023/09/28 10:51:48;;;;;;;15.87;2.70;;;29.20;33.00;;;;;;4975192;28;20438;-56
2023/09/28 10:54:14;;;;;;;2.40;1.80;;;29.30;31.90;;;;;;4975003;28;20455;-55
2023/09/28 10:56:40;;;;;;;3.53;2.90;;;29.30;32.80;;;;;;4975080;28;20965;-52
2023/09/28 10:59:07;;;;;;;3.33;2.20;;;29.40;32.30;;;;;;4975246;28;20443;-53
2023/09/28 11:01:42;;;;;;;2.20;1.60;;;29.50;32.70;;;;;;4973833;28;20411;-56
2023/09/28 11:04:08;;;;;;;2.73;2.37;;;29.50;32.60;;;;;;4974868;28;20901;-54
2023/09/28 11:06:35;;;;;;;2.07;1.87;;;29.70;31.50;;;;;;4974860;28;20419;-53
2023/09/28 11:09:05;;;;;;;3.33;1.83;;;29.70;32.10;;;;;;4974786;28;20522;-55
2023/09/28 11:11:31;;;;;;;2.70;1.80;;;29.70;32.00;;;;;;4975137;28;20431;-53
2023/09/28 11:14:00;;;;;;;2.23;1.87;;;29.90;30.50;;;;;;4974549;28;21004;-53
2023/09/28 11:16:27;;;;;;;4.77;2.30;;;29.90;31.50;;;;;;4974781;28;20798;-54
2023/09/28 11:18:54;;;;;;;4.50;1.60;;;30.00;32.40;;;;;;4974695;28;20431;-54
2023/09/28 11:21:21;;;;;;;1.70;1.47;;;30.10;31.70;;;;;;4974652;28;20806;-54
2023/09/28 11:23:50;;;;;;;1.70;1.50;;;30.10;31.60;;;;;;4974421;28;20415;-56
2023/09/28 11:26:16;;;;;;;3.97;1.77;;;30.20;31.70;;;;;;4974689;28;20442;-54
2023/09/28 11:28:42;;;;;;;2.27;1.60;;;30.30;30.90;;;;;;4974468;28;20431;-56
2023/09/28 11:31:11;;;;;;;2.20;1.90;;;30.30;30.70;;;;;;4974566;28;20810;-55
2023/09/28 11:33:38;;;;;;;4.00;2.50;;;30.30;31.10;;;;;;4974194;28;20458;-54
2023/09/28 11:36:12;;;;;;;3.37;2.03;;;30.40;30.60;;;;;;4973496;28;21040;-56
2023/09/28 11:38:41;;;;;;;3.60;2.53;;;30.40;30.90;;;;;;4974485;28;20502;-56
2023/09/28 11:41:08;;;;;;;3.10;2.23;;;30.40;29.50;;;;;;4974313;28;20993;-54
2023/09/28 11:43:47;;;;;;;2.93;1.60;;;30.40;30.70;;;;;;4974110;28;20498;-57
2023/09/28 11:46:18;;;;;;;2.40;1.80;;;30.60;30.40;;;;;;4974167;28;20419;-52
2023/09/28 11:48:44;;;;;;;2.00;1.50;;;30.70;31.10;;;;;;4974112;28;20432;-57
2023/09/28 11:51:10;;;;;;;3.43;2.67;;;30.80;30.30;;;;;;4974108;28;20411;-54
2023/09/28 11:53:42;;;;;;;4.80;3.03;;;30.90;31.20;;;;;;4973956;28;20202;-57
2023/09/28 11:56:11;;;;;;;5.67;2.23;;;31.20;30.10;;;;;;4974115;28;20952;-55
2023/09/28 11:58:36;;;;;;;2.50;1.93;;;31.20;29.00;;;;;;4973975;28;20980;-52
2023/09/28 12:01:03;;;;;;;2.57;1.90;;;31.20;30.00;;;;;;4973819;28;20490;-56
2023/09/28 12:03:29;;;;;;;2.07;1.50;;;31.20;29.80;;;;;;4973769;28;20193;-50
2023/09/28 12:05:55;;;;;;;2.40;1.20;;;31.20;28.40;;;;;;4974027;28;20411;-54
2023/09/28 12:08:21;;;;;;;2.83;1.70;;;31.10;29.10;;;;;;4973805;28;20196;-55
2023/09/28 12:10:47;;;;;;;2.03;1.37;;;31.10;30.10;;;;;;4973722;28;20743;-54
2023/09/28 12:13:13;;;;;;;3.17;2.00;;;31.00;30.40;;;;;;4973602;28;20542;-55
2023/09/28 12:15:39;;;;;;;3.03;1.70;;;31.00;30.10;;;;;;4973643;28;20501;-52
2023/09/28 12:18:05;;;;;;;2.63;1.50;;;30.90;28.40;;;;;;4973881;28;20209;-56
2023/09/28 12:20:31;;;;;;;5.23;2.23;;;30.90;29.30;;;;;;4973681;28;20179;-56
2023/09/28 12:22:57;;;;;;;3.33;1.50;;;31.00;29.30;;;;;;4973633;28;20442;-54
2023/09/28 12:25:23;;;;;;;2.93;1.80;;;31.00;28.90;;;;;;4973491;28;20743;-56
2023/09/28 12:27:50;;;;;;;2.13;1.77;;;31.00;29.90;;;;;;4973570;28;20444;-55
2023/09/28 12:30:21;;;;;;;2.83;1.80;;;31.20;30.10;;;;;;4973335;28;20924;-55
2023/09/28 12:32:49;;;;;;;4.93;2.60;;;31.30;30.40;;;;;;4973440;28;20491;-55
2023/09/28 12:35:15;;;;;;;2.83;2.23;;;31.50;30.30;;;;;;4973420;28;20453;-54
2023/09/28 12:37:41;;;;;;;3.87;2.33;;;31.70;29.50;;;;;;4973431;28;20427;-54
2023/09/28 12:40:11;;;;;;;4.07;2.63;;;31.80;28.50;;;;;;4973348;28;20413;-57
2023/09/28 12:42:39;;;;;;;3.83;1.93;;;31.80;29.60;;;;;;4973101;28;20460;-55
2023/09/28 12:45:06;;;;;;;2.07;1.17;;;31.90;29.40;;;;;;4973213;28;21027;-52
2023/09/28 12:47:32;;;;;;;3.23;1.67;;;31.90;29.60;;;;;;4973287;28;20434;-57